Archival Weather

Snohomish County (Paine Fld)

Everett, Washington (KPAE)

Report from: Monday, October 23, 2023 11:53 PM PDT
Current time: Monday, June 17, 2024 1:24 AM PDT

Current weather – Weather history – Daily summaries
Weather forecast

Temperature8.9°C (48.0°F)
Wind chill7.5°C (45.4°F)
Dew point4.4°C (39.9°F)
Winds 5 kts (2.6 m/s, 5.8 mph) Southeast (140°)
Visibility10 mi. (16.1 km)
Clouds Ceiling: Broken clouds 4,300 ft. (1,311 m)
Overcast 5,500 ft. (1,676 m)
Altimeter30.04 in.Hg (1017 mB)
Relative humidity73 %
Density altitude-749 ft. (-228 m)
Sea-level pressure101.7 kPa (1017 mB, 30.04 in.Hg)
Remarks Fully automated report
Automated weather observing station with precipitation discriminator
Flight conditions Visual Meteorological Conditions
Raw dataKPAE 240653Z AUTO 14005KT 10SM BKN043 OVC055 09/04 A3004 RMK AO2 SLP174 T00890044
An error has occurred. This application may no longer respond until reloaded. Reload 🗙